sensor_id;sensor_type;location;lat;lon;timestamp;P1;durP1;ratioP1;P2;durP2;ratioP2
11735;SDS011;5924;51.398;7.088;2023-02-21T00:01:49;47.27;;;21.50;;
11735;SDS011;5924;51.398;7.088;2023-02-21T00:04:33;47.90;;;22.03;;
11735;SDS011;5924;51.398;7.088;2023-02-21T00:07:17;52.07;;;23.00;;
11735;SDS011;5924;51.398;7.088;2023-02-21T00:10:02;47.33;;;23.10;;
11735;SDS011;5924;51.398;7.088;2023-02-21T00:12:47;49.63;;;24.70;;
11735;SDS011;5924;51.398;7.088;2023-02-21T00:15:31;51.80;;;24.20;;
11735;SDS011;5924;51.398;7.088;2023-02-21T00:18:15;47.67;;;24.07;;
11735;SDS011;5924;51.398;7.088;2023-02-21T00:21:00;53.13;;;23.77;;
11735;SDS011;5924;51.398;7.088;2023-02-21T00:23:44;56.50;;;27.30;;
11735;SDS011;5924;51.398;7.088;2023-02-21T00:26:28;55.23;;;23.80;;
11735;SDS011;5924;51.398;7.088;2023-02-21T00:29:12;44.47;;;23.00;;
11735;SDS011;5924;51.398;7.088;2023-02-21T00:31:57;47.77;;;23.57;;
11735;SDS011;5924;51.398;7.088;2023-02-21T00:34:41;44.83;;;24.00;;
11735;SDS011;5924;51.398;7.088;2023-02-21T00:37:25;51.53;;;23.17;;
11735;SDS011;5924;51.398;7.088;2023-02-21T00:40:12;53.43;;;25.50;;
11735;SDS011;5924;51.398;7.088;2023-02-21T00:42:58;45.30;;;23.70;;
11735;SDS011;5924;51.398;7.088;2023-02-21T00:45:43;55.33;;;26.10;;
11735;SDS011;5924;51.398;7.088;2023-02-21T00:48:27;52.37;;;24.77;;
11735;SDS011;5924;51.398;7.088;2023-02-21T00:51:12;57.60;;;25.07;;
11735;SDS011;5924;51.398;7.088;2023-02-21T00:53:56;54.57;;;24.00;;
11735;SDS011;5924;51.398;7.088;2023-02-21T00:56:40;56.10;;;25.23;;
11735;SDS011;5924;51.398;7.088;2023-02-21T00:59:24;53.63;;;25.87;;
11735;SDS011;5924;51.398;7.088;2023-02-21T01:02:08;51.47;;;25.30;;
11735;SDS011;5924;51.398;7.088;2023-02-21T01:04:53;67.40;;;26.03;;
11735;SDS011;5924;51.398;7.088;2023-02-21T01:07:37;54.30;;;26.30;;
11735;SDS011;5924;51.398;7.088;2023-02-21T01:10:21;64.67;;;27.37;;
11735;SDS011;5924;51.398;7.088;2023-02-21T01:13:06;52.10;;;24.70;;
11735;SDS011;5924;51.398;7.088;2023-02-21T01:15:50;59.87;;;27.07;;
11735;SDS011;5924;51.398;7.088;2023-02-21T01:18:34;57.80;;;26.90;;
11735;SDS011;5924;51.398;7.088;2023-02-21T01:21:18;50.27;;;25.60;;
11735;SDS011;5924;51.398;7.088;2023-02-21T01:24:03;60.17;;;28.20;;
11735;SDS011;5924;51.398;7.088;2023-02-21T01:26:49;65.23;;;28.20;;
11735;SDS011;5924;51.398;7.088;2023-02-21T01:29:33;74.47;;;28.30;;
11735;SDS011;5924;51.398;7.088;2023-02-21T01:32:17;60.17;;;28.03;;
11735;SDS011;5924;51.398;7.088;2023-02-21T01:35:02;57.40;;;25.23;;
11735;SDS011;5924;51.398;7.088;2023-02-21T01:37:46;55.33;;;27.00;;
11735;SDS011;5924;51.398;7.088;2023-02-21T01:40:30;61.23;;;27.80;;
11735;SDS011;5924;51.398;7.088;2023-02-21T01:43:15;63.07;;;26.30;;
11735;SDS011;5924;51.398;7.088;2023-02-21T01:46:00;57.10;;;27.37;;
11735;SDS011;5924;51.398;7.088;2023-02-21T01:48:45;69.80;;;29.30;;
11735;SDS011;5924;51.398;7.088;2023-02-21T01:51:32;65.27;;;27.83;;
11735;SDS011;5924;51.398;7.088;2023-02-21T01:54:20;59.00;;;27.17;;
11735;SDS011;5924;51.398;7.088;2023-02-21T01:57:06;64.60;;;28.70;;
11735;SDS011;5924;51.398;7.088;2023-02-21T01:59:52;61.20;;;28.37;;
11735;SDS011;5924;51.398;7.088;2023-02-21T02:02:43;66.53;;;29.93;;
11735;SDS011;5924;51.398;7.088;2023-02-21T02:05:48;69.93;;;28.23;;
11735;SDS011;5924;51.398;7.088;2023-02-21T02:09:05;67.40;;;28.17;;
11735;SDS011;5924;51.398;7.088;2023-02-21T02:26:14;69.47;;;28.60;;
11735;SDS011;5924;51.398;7.088;2023-02-21T02:40:00;64.67;;;28.57;;
11735;SDS011;5924;51.398;7.088;2023-02-21T02:42:31;62.63;;;27.70;;
11735;SDS011;5924;51.398;7.088;2023-02-21T02:45:14;69.50;;;30.40;;
11735;SDS011;5924;51.398;7.088;2023-02-21T02:47:49;74.27;;;31.30;;
11735;SDS011;5924;51.398;7.088;2023-02-21T02:50:21;66.07;;;29.00;;
11735;SDS011;5924;51.398;7.088;2023-02-21T02:52:49;66.00;;;28.50;;
11735;SDS011;5924;51.398;7.088;2023-02-21T02:55:31;54.43;;;26.33;;
11735;SDS011;5924;51.398;7.088;2023-02-21T02:58:00;63.53;;;27.10;;
11735;SDS011;5924;51.398;7.088;2023-02-21T03:00:28;63.60;;;27.77;;
11735;SDS011;5924;51.398;7.088;2023-02-21T03:03:08;58.30;;;27.50;;
11735;SDS011;5924;51.398;7.088;2023-02-21T03:08:29;66.87;;;29.10;;
11735;SDS011;5924;51.398;7.088;2023-02-21T03:11:16;55.50;;;27.47;;
11735;SDS011;5924;51.398;7.088;2023-02-21T03:13:46;70.40;;;28.10;;
11735;SDS011;5924;51.398;7.088;2023-02-21T03:18:54;58.73;;;28.37;;
11735;SDS011;5924;51.398;7.088;2023-02-21T03:21:31;70.93;;;30.67;;
11735;SDS011;5924;51.398;7.088;2023-02-21T03:24:01;66.83;;;28.03;;
11735;SDS011;5924;51.398;7.088;2023-02-21T03:26:31;64.43;;;28.67;;
11735;SDS011;5924;51.398;7.088;2023-02-21T03:29:00;54.27;;;26.50;;
11735;SDS011;5924;51.398;7.088;2023-02-21T03:31:28;56.57;;;27.30;;
11735;SDS011;5924;51.398;7.088;2023-02-21T03:34:00;57.57;;;28.47;;
11735;SDS011;5924;51.398;7.088;2023-02-21T03:36:26;57.20;;;27.10;;
11735;SDS011;5924;51.398;7.088;2023-02-21T03:38:51;58.53;;;27.33;;
11735;SDS011;5924;51.398;7.088;2023-02-21T03:41:17;69.13;;;29.33;;
11735;SDS011;5924;51.398;7.088;2023-02-21T03:43:43;58.40;;;27.60;;
11735;SDS011;5924;51.398;7.088;2023-02-21T03:46:08;57.20;;;28.50;;
11735;SDS011;5924;51.398;7.088;2023-02-21T03:48:34;55.60;;;27.77;;
11735;SDS011;5924;51.398;7.088;2023-02-21T03:51:00;58.37;;;27.00;;
11735;SDS011;5924;51.398;7.088;2023-02-21T03:53:25;55.57;;;26.63;;
11735;SDS011;5924;51.398;7.088;2023-02-21T03:55:51;65.03;;;27.47;;
11735;SDS011;5924;51.398;7.088;2023-02-21T03:58:17;59.70;;;27.70;;
11735;SDS011;5924;51.398;7.088;2023-02-21T04:00:42;57.00;;;28.20;;
11735;SDS011;5924;51.398;7.088;2023-02-21T04:03:08;53.10;;;25.60;;
11735;SDS011;5924;51.398;7.088;2023-02-21T04:05:34;55.63;;;26.90;;
11735;SDS011;5924;51.398;7.088;2023-02-21T04:08:00;52.47;;;25.50;;
11735;SDS011;5924;51.398;7.088;2023-02-21T04:10:27;50.83;;;27.53;;
11735;SDS011;5924;51.398;7.088;2023-02-21T04:12:53;56.00;;;26.63;;
11735;SDS011;5924;51.398;7.088;2023-02-21T04:15:18;53.90;;;26.03;;
11735;SDS011;5924;51.398;7.088;2023-02-21T04:17:44;56.87;;;27.30;;
11735;SDS011;5924;51.398;7.088;2023-02-21T04:20:10;60.83;;;28.43;;
11735;SDS011;5924;51.398;7.088;2023-02-21T04:22:35;62.90;;;27.93;;
11735;SDS011;5924;51.398;7.088;2023-02-21T04:25:01;57.87;;;26.83;;
11735;SDS011;5924;51.398;7.088;2023-02-21T04:27:27;65.67;;;27.57;;
11735;SDS011;5924;51.398;7.088;2023-02-21T04:29:52;61.47;;;26.60;;
11735;SDS011;5924;51.398;7.088;2023-02-21T04:32:18;53.97;;;26.30;;
11735;SDS011;5924;51.398;7.088;2023-02-21T04:34:44;56.47;;;27.00;;
11735;SDS011;5924;51.398;7.088;2023-02-21T04:37:09;57.30;;;27.33;;
11735;SDS011;5924;51.398;7.088;2023-02-21T04:39:35;58.73;;;25.97;;
11735;SDS011;5924;51.398;7.088;2023-02-21T04:42:01;62.53;;;27.50;;
11735;SDS011;5924;51.398;7.088;2023-02-21T04:44:26;59.20;;;27.97;;
11735;SDS011;5924;51.398;7.088;2023-02-21T04:46:52;68.47;;;28.13;;
11735;SDS011;5924;51.398;7.088;2023-02-21T04:49:17;65.80;;;29.37;;
11735;SDS011;5924;51.398;7.088;2023-02-21T04:51:43;64.83;;;30.23;;
11735;SDS011;5924;51.398;7.088;2023-02-21T04:54:09;70.70;;;30.27;;
11735;SDS011;5924;51.398;7.088;2023-02-21T04:56:34;67.47;;;30.53;;
11735;SDS011;5924;51.398;7.088;2023-02-21T04:59:01;76.93;;;31.67;;
11735;SDS011;5924;51.398;7.088;2023-02-21T05:01:27;71.00;;;29.47;;
11735;SDS011;5924;51.398;7.088;2023-02-21T05:03:55;82.83;;;30.00;;
11735;SDS011;5924;51.398;7.088;2023-02-21T05:06:21;66.87;;;29.47;;
11735;SDS011;5924;51.398;7.088;2023-02-21T05:08:48;68.20;;;28.93;;
11735;SDS011;5924;51.398;7.088;2023-02-21T05:11:15;77.27;;;29.37;;
11735;SDS011;5924;51.398;7.088;2023-02-21T05:13:41;77.57;;;30.70;;
11735;SDS011;5924;51.398;7.088;2023-02-21T05:16:07;80.63;;;32.60;;
11735;SDS011;5924;51.398;7.088;2023-02-21T05:18:33;79.40;;;29.27;;
11735;SDS011;5924;51.398;7.088;2023-02-21T05:20:59;89.50;;;32.67;;
11735;SDS011;5924;51.398;7.088;2023-02-21T05:23:25;82.07;;;30.97;;
11735;SDS011;5924;51.398;7.088;2023-02-21T05:26:01;79.60;;;30.20;;
11735;SDS011;5924;51.398;7.088;2023-02-21T05:28:30;81.63;;;32.03;;
11735;SDS011;5924;51.398;7.088;2023-02-21T05:30:56;90.70;;;33.47;;
11735;SDS011;5924;51.398;7.088;2023-02-21T05:33:22;99.30;;;33.53;;
11735;SDS011;5924;51.398;7.088;2023-02-21T05:35:48;94.43;;;34.77;;
11735;SDS011;5924;51.398;7.088;2023-02-21T05:38:15;88.43;;;32.47;;
11735;SDS011;5924;51.398;7.088;2023-02-21T05:40:42;88.40;;;33.27;;
11735;SDS011;5924;51.398;7.088;2023-02-21T05:43:07;96.30;;;33.83;;
11735;SDS011;5924;51.398;7.088;2023-02-21T05:45:33;99.77;;;36.00;;
11735;SDS011;5924;51.398;7.088;2023-02-21T05:47:59;94.67;;;36.40;;
11735;SDS011;5924;51.398;7.088;2023-02-21T05:50:26;94.63;;;35.80;;
11735;SDS011;5924;51.398;7.088;2023-02-21T05:52:52;88.40;;;34.77;;
11735;SDS011;5924;51.398;7.088;2023-02-21T05:55:18;84.23;;;33.57;;
11735;SDS011;5924;51.398;7.088;2023-02-21T05:57:44;85.63;;;33.07;;
11735;SDS011;5924;51.398;7.088;2023-02-21T06:00:23;97.33;;;34.47;;
11735;SDS011;5924;51.398;7.088;2023-02-21T06:02:52;86.07;;;34.80;;
11735;SDS011;5924;51.398;7.088;2023-02-21T06:05:18;104.30;;;33.93;;
11735;SDS011;5924;51.398;7.088;2023-02-21T06:07:44;89.80;;;33.47;;
11735;SDS011;5924;51.398;7.088;2023-02-21T06:10:10;103.40;;;34.50;;
11735;SDS011;5924;51.398;7.088;2023-02-21T06:12:36;99.40;;;36.23;;
11735;SDS011;5924;51.398;7.088;2023-02-21T06:15:02;100.10;;;35.80;;
11735;SDS011;5924;51.398;7.088;2023-02-21T06:17:31;101.83;;;36.87;;
11735;SDS011;5924;51.398;7.088;2023-02-21T06:20:01;91.77;;;34.00;;
11735;SDS011;5924;51.398;7.088;2023-02-21T06:22:27;90.63;;;34.80;;
11735;SDS011;5924;51.398;7.088;2023-02-21T06:24:52;106.07;;;38.30;;
11735;SDS011;5924;51.398;7.088;2023-02-21T06:27:18;88.47;;;33.70;;
11735;SDS011;5924;51.398;7.088;2023-02-21T06:29:44;92.67;;;33.30;;
11735;SDS011;5924;51.398;7.088;2023-02-21T06:32:09;91.73;;;33.60;;
11735;SDS011;5924;51.398;7.088;2023-02-21T06:34:35;91.83;;;34.33;;
11735;SDS011;5924;51.398;7.088;2023-02-21T06:37:00;101.87;;;33.77;;
11735;SDS011;5924;51.398;7.088;2023-02-21T06:39:26;98.50;;;34.50;;
11735;SDS011;5924;51.398;7.088;2023-02-21T06:41:52;92.57;;;34.47;;
11735;SDS011;5924;51.398;7.088;2023-02-21T06:44:18;99.03;;;34.33;;
11735;SDS011;5924;51.398;7.088;2023-02-21T06:46:44;98.40;;;35.43;;
11735;SDS011;5924;51.398;7.088;2023-02-21T06:49:10;94.87;;;33.60;;
11735;SDS011;5924;51.398;7.088;2023-02-21T06:51:37;94.27;;;34.27;;
11735;SDS011;5924;51.398;7.088;2023-02-21T06:54:04;104.23;;;35.23;;
11735;SDS011;5924;51.398;7.088;2023-02-21T06:56:30;91.40;;;34.90;;
11735;SDS011;5924;51.398;7.088;2023-02-21T06:58:56;99.53;;;36.60;;
11735;SDS011;5924;51.398;7.088;2023-02-21T07:01:23;99.40;;;34.90;;
11735;SDS011;5924;51.398;7.088;2023-02-21T07:03:51;105.17;;;37.37;;
11735;SDS011;5924;51.398;7.088;2023-02-21T07:06:17;94.90;;;34.20;;
11735;SDS011;5924;51.398;7.088;2023-02-21T07:08:43;96.33;;;35.00;;
11735;SDS011;5924;51.398;7.088;2023-02-21T07:11:09;97.73;;;36.43;;
11735;SDS011;5924;51.398;7.088;2023-02-21T07:13:35;105.13;;;36.47;;
11735;SDS011;5924;51.398;7.088;2023-02-21T07:16:01;111.87;;;37.73;;
11735;SDS011;5924;51.398;7.088;2023-02-21T07:18:27;106.80;;;36.60;;
11735;SDS011;5924;51.398;7.088;2023-02-21T07:20:53;101.50;;;34.60;;
11735;SDS011;5924;51.398;7.088;2023-02-21T07:23:19;110.77;;;36.30;;
11735;SDS011;5924;51.398;7.088;2023-02-21T07:25:44;99.67;;;36.13;;
11735;SDS011;5924;51.398;7.088;2023-02-21T07:28:10;100.13;;;35.77;;
11735;SDS011;5924;51.398;7.088;2023-02-21T07:30:36;120.87;;;37.50;;
11735;SDS011;5924;51.398;7.088;2023-02-21T07:33:02;111.10;;;38.10;;
11735;SDS011;5924;51.398;7.088;2023-02-21T07:35:27;117.13;;;38.40;;
11735;SDS011;5924;51.398;7.088;2023-02-21T07:37:53;110.97;;;37.43;;
11735;SDS011;5924;51.398;7.088;2023-02-21T07:40:18;117.93;;;36.50;;
11735;SDS011;5924;51.398;7.088;2023-02-21T07:42:44;109.70;;;36.80;;
11735;SDS011;5924;51.398;7.088;2023-02-21T07:45:13;106.73;;;36.23;;
11735;SDS011;5924;51.398;7.088;2023-02-21T07:47:40;113.13;;;38.03;;
11735;SDS011;5924;51.398;7.088;2023-02-21T07:50:08;109.43;;;35.67;;
11735;SDS011;5924;51.398;7.088;2023-02-21T07:52:34;92.83;;;33.87;;
11735;SDS011;5924;51.398;7.088;2023-02-21T07:55:00;81.20;;;30.70;;
11735;SDS011;5924;51.398;7.088;2023-02-21T07:57:26;94.40;;;31.57;;
11735;SDS011;5924;51.398;7.088;2023-02-21T07:59:51;84.40;;;32.33;;
11735;SDS011;5924;51.398;7.088;2023-02-21T08:02:17;77.03;;;28.57;;
11735;SDS011;5924;51.398;7.088;2023-02-21T08:04:43;78.03;;;28.27;;
11735;SDS011;5924;51.398;7.088;2023-02-21T08:07:08;90.73;;;30.23;;
11735;SDS011;5924;51.398;7.088;2023-02-21T08:09:34;87.03;;;29.30;;
11735;SDS011;5924;51.398;7.088;2023-02-21T08:12:01;81.27;;;29.30;;
11735;SDS011;5924;51.398;7.088;2023-02-21T08:14:27;94.43;;;29.17;;
11735;SDS011;5924;51.398;7.088;2023-02-21T08:16:53;91.03;;;31.90;;
11735;SDS011;5924;51.398;7.088;2023-02-21T08:19:18;98.47;;;32.07;;
11735;SDS011;5924;51.398;7.088;2023-02-21T08:21:45;114.63;;;33.67;;
11735;SDS011;5924;51.398;7.088;2023-02-21T08:24:11;108.03;;;32.70;;
11735;SDS011;5924;51.398;7.088;2023-02-21T08:26:37;103.40;;;34.20;;
11735;SDS011;5924;51.398;7.088;2023-02-21T08:29:05;112.30;;;34.73;;
11735;SDS011;5924;51.398;7.088;2023-02-21T08:31:37;98.70;;;31.73;;
11735;SDS011;5924;51.398;7.088;2023-02-21T08:34:04;108.97;;;33.13;;
11735;SDS011;5924;51.398;7.088;2023-02-21T08:36:34;95.27;;;32.27;;
11735;SDS011;5924;51.398;7.088;2023-02-21T08:39:02;97.33;;;32.37;;
11735;SDS011;5924;51.398;7.088;2023-02-21T08:42:01;88.67;;;30.50;;
11735;SDS011;5924;51.398;7.088;2023-02-21T08:44:19;78.53;;;28.10;;
11735;SDS011;5924;51.398;7.088;2023-02-21T08:46:45;80.00;;;28.10;;
11735;SDS011;5924;51.398;7.088;2023-02-21T08:49:12;67.90;;;26.37;;
11735;SDS011;5924;51.398;7.088;2023-02-21T08:51:37;73.07;;;25.00;;
11735;SDS011;5924;51.398;7.088;2023-02-21T08:54:04;73.33;;;26.60;;
11735;SDS011;5924;51.398;7.088;2023-02-21T08:56:30;68.57;;;24.80;;
11735;SDS011;5924;51.398;7.088;2023-02-21T08:58:56;70.03;;;24.20;;
11735;SDS011;5924;51.398;7.088;2023-02-21T09:01:22;65.03;;;23.97;;
11735;SDS011;5924;51.398;7.088;2023-02-21T09:03:49;60.93;;;24.40;;
11735;SDS011;5924;51.398;7.088;2023-02-21T09:06:15;70.33;;;25.60;;
11735;SDS011;5924;51.398;7.088;2023-02-21T09:08:41;74.47;;;26.20;;
11735;SDS011;5924;51.398;7.088;2023-02-21T09:11:07;73.70;;;23.67;;
11735;SDS011;5924;51.398;7.088;2023-02-21T09:13:33;66.90;;;23.10;;
11735;SDS011;5924;51.398;7.088;2023-02-21T09:16:00;77.67;;;25.57;;
11735;SDS011;5924;51.398;7.088;2023-02-21T09:18:27;66.23;;;22.90;;
11735;SDS011;5924;51.398;7.088;2023-02-21T09:20:53;66.17;;;23.70;;
11735;SDS011;5924;51.398;7.088;2023-02-21T09:23:21;72.23;;;24.40;;
11735;SDS011;5924;51.398;7.088;2023-02-21T09:25:48;63.57;;;22.60;;
11735;SDS011;5924;51.398;7.088;2023-02-21T09:28:15;68.60;;;24.33;;
11735;SDS011;5924;51.398;7.088;2023-02-21T09:30:40;63.93;;;23.40;;
11735;SDS011;5924;51.398;7.088;2023-02-21T09:33:07;62.13;;;21.40;;
11735;SDS011;5924;51.398;7.088;2023-02-21T09:35:33;64.40;;;23.43;;
11735;SDS011;5924;51.398;7.088;2023-02-21T09:37:59;58.03;;;21.97;;
11735;SDS011;5924;51.398;7.088;2023-02-21T09:43:04;47.93;;;20.33;;
11735;SDS011;5924;51.398;7.088;2023-02-21T09:45:35;52.07;;;20.60;;
11735;SDS011;5924;51.398;7.088;2023-02-21T09:48:16;52.30;;;19.67;;
11735;SDS011;5924;51.398;7.088;2023-02-21T09:50:48;51.90;;;18.93;;
11735;SDS011;5924;51.398;7.088;2023-02-21T09:53:25;45.80;;;19.33;;
11735;SDS011;5924;51.398;7.088;2023-02-21T09:55:53;42.73;;;18.13;;
11735;SDS011;5924;51.398;7.088;2023-02-21T09:58:25;37.50;;;17.73;;
11735;SDS011;5924;51.398;7.088;2023-02-21T10:00:50;43.77;;;18.90;;
11735;SDS011;5924;51.398;7.088;2023-02-21T10:05:51;43.73;;;18.80;;
11735;SDS011;5924;51.398;7.088;2023-02-21T10:13:51;37.73;;;17.80;;
11735;SDS011;5924;51.398;7.088;2023-02-21T10:16:32;38.50;;;18.03;;
11735;SDS011;5924;51.398;7.088;2023-02-21T10:21:55;40.63;;;17.23;;
11735;SDS011;5924;51.398;7.088;2023-02-21T10:24:25;45.13;;;18.27;;
11735;SDS011;5924;51.398;7.088;2023-02-21T10:27:03;46.40;;;19.17;;
11735;SDS011;5924;51.398;7.088;2023-02-21T10:29:41;38.77;;;19.37;;
11735;SDS011;5924;51.398;7.088;2023-02-21T10:32:19;37.63;;;18.70;;
11735;SDS011;5924;51.398;7.088;2023-02-21T10:34:45;37.87;;;16.80;;
11735;SDS011;5924;51.398;7.088;2023-02-21T10:37:55;41.80;;;17.50;;
11735;SDS011;5924;51.398;7.088;2023-02-21T10:43:04;32.53;;;15.63;;
11735;SDS011;5924;51.398;7.088;2023-02-21T10:48:43;31.77;;;14.50;;
11735;SDS011;5924;51.398;7.088;2023-02-21T10:53:40;31.20;;;16.63;;
11735;SDS011;5924;51.398;7.088;2023-02-21T10:58:39;34.33;;;15.57;;
11735;SDS011;5924;51.398;7.088;2023-02-21T11:04:01;25.50;;;13.87;;
11735;SDS011;5924;51.398;7.088;2023-02-21T11:06:32;24.93;;;14.07;;
11735;SDS011;5924;51.398;7.088;2023-02-21T11:09:01;34.17;;;15.97;;
11735;SDS011;5924;51.398;7.088;2023-02-21T11:11:47;43.03;;;15.17;;
11735;SDS011;5924;51.398;7.088;2023-02-21T11:16:41;37.10;;;16.50;;
11735;SDS011;5924;51.398;7.088;2023-02-21T11:19:10;30.30;;;16.83;;
11735;SDS011;5924;51.398;7.088;2023-02-21T11:21:37;30.37;;;14.60;;
11735;SDS011;5924;51.398;7.088;2023-02-21T11:24:05;28.77;;;14.47;;
11735;SDS011;5924;51.398;7.088;2023-02-21T11:26:38;25.80;;;14.53;;
11735;SDS011;5924;51.398;7.088;2023-02-21T11:29:17;30.63;;;15.63;;
11735;SDS011;5924;51.398;7.088;2023-02-21T11:31:50;32.10;;;14.80;;
11735;SDS011;5924;51.398;7.088;2023-02-21T11:34:16;25.00;;;14.00;;
11735;SDS011;5924;51.398;7.088;2023-02-21T11:36:44;25.90;;;13.83;;
11735;SDS011;5924;51.398;7.088;2023-02-21T11:44:28;38.57;;;16.00;;
11735;SDS011;5924;51.398;7.088;2023-02-21T11:52:47;36.00;;;17.27;;
11735;SDS011;5924;51.398;7.088;2023-02-21T11:55:21;34.27;;;16.73;;
11735;SDS011;5924;51.398;7.088;2023-02-21T12:06:05;41.63;;;17.40;;
11735;SDS011;5924;51.398;7.088;2023-02-21T12:09:12;35.73;;;18.40;;
11735;SDS011;5924;51.398;7.088;2023-02-21T12:17:46;40.80;;;18.57;;
11735;SDS011;5924;51.398;7.088;2023-02-21T12:26:26;41.97;;;18.40;;
11735;SDS011;5924;51.398;7.088;2023-02-21T12:31:58;40.57;;;19.73;;
11735;SDS011;5924;51.398;7.088;2023-02-21T12:37:11;37.53;;;19.63;;
11735;SDS011;5924;51.398;7.088;2023-02-21T12:48:14;46.20;;;21.00;;
11735;SDS011;5924;51.398;7.088;2023-02-21T12:50:43;47.17;;;20.63;;
11735;SDS011;5924;51.398;7.088;2023-02-21T12:53:19;47.87;;;21.40;;
11735;SDS011;5924;51.398;7.088;2023-02-21T12:56:15;45.63;;;21.53;;
11735;SDS011;5924;51.398;7.088;2023-02-21T12:58:44;47.20;;;21.70;;
11735;SDS011;5924;51.398;7.088;2023-02-21T13:01:16;52.37;;;23.77;;
11735;SDS011;5924;51.398;7.088;2023-02-21T13:06:33;50.87;;;24.10;;
11735;SDS011;5924;51.398;7.088;2023-02-21T13:14:26;59.40;;;25.47;;
11735;SDS011;5924;51.398;7.088;2023-02-21T13:17:16;55.90;;;21.73;;
11735;SDS011;5924;51.398;7.088;2023-02-21T13:25:43;43.27;;;21.47;;
11735;SDS011;5924;51.398;7.088;2023-02-21T13:28:21;52.93;;;23.83;;
11735;SDS011;5924;51.398;7.088;2023-02-21T13:30:56;51.07;;;23.63;;
11735;SDS011;5924;51.398;7.088;2023-02-21T13:33:26;53.60;;;22.80;;
11735;SDS011;5924;51.398;7.088;2023-02-21T13:35:59;48.60;;;22.00;;
11735;SDS011;5924;51.398;7.088;2023-02-21T13:38:26;54.80;;;23.70;;
11735;SDS011;5924;51.398;7.088;2023-02-21T13:41:02;55.00;;;23.70;;
11735;SDS011;5924;51.398;7.088;2023-02-21T13:43:50;57.77;;;24.27;;
11735;SDS011;5924;51.398;7.088;2023-02-21T14:03:33;57.80;;;22.43;;
11735;SDS011;5924;51.398;7.088;2023-02-21T14:11:23;58.03;;;22.87;;
11735;SDS011;5924;51.398;7.088;2023-02-21T14:13:56;58.03;;;23.53;;
11735;SDS011;5924;51.398;7.088;2023-02-21T14:19:11;55.20;;;24.30;;
11735;SDS011;5924;51.398;7.088;2023-02-21T14:21:45;62.70;;;23.17;;
11735;SDS011;5924;51.398;7.088;2023-02-21T14:24:18;61.63;;;24.20;;
11735;SDS011;5924;51.398;7.088;2023-02-21T14:26:54;61.00;;;22.47;;
11735;SDS011;5924;51.398;7.088;2023-02-21T14:29:32;60.43;;;23.57;;
11735;SDS011;5924;51.398;7.088;2023-02-21T14:56:11;74.70;;;27.57;;
11735;SDS011;5924;51.398;7.088;2023-02-21T15:02:01;67.53;;;25.13;;
11735;SDS011;5924;51.398;7.088;2023-02-21T15:04:41;74.47;;;27.30;;
11735;SDS011;5924;51.398;7.088;2023-02-21T15:10:24;74.40;;;27.23;;
11735;SDS011;5924;51.398;7.088;2023-02-21T15:12:53;88.70;;;28.63;;
11735;SDS011;5924;51.398;7.088;2023-02-21T15:18:08;87.17;;;31.67;;
11735;SDS011;5924;51.398;7.088;2023-02-21T15:20:36;82.30;;;29.87;;
11735;SDS011;5924;51.398;7.088;2023-02-21T15:23:14;82.60;;;29.57;;
11735;SDS011;5924;51.398;7.088;2023-02-21T15:25:44;89.23;;;31.30;;
11735;SDS011;5924;51.398;7.088;2023-02-21T15:28:22;84.80;;;29.77;;
11735;SDS011;5924;51.398;7.088;2023-02-21T15:33:24;82.27;;;27.33;;
11735;SDS011;5924;51.398;7.088;2023-02-21T15:38:39;106.17;;;30.23;;
11735;SDS011;5924;51.398;7.088;2023-02-21T15:43:55;92.63;;;29.40;;
11735;SDS011;5924;51.398;7.088;2023-02-21T15:50:00;86.27;;;29.20;;
11735;SDS011;5924;51.398;7.088;2023-02-21T15:52:48;95.90;;;30.13;;
11735;SDS011;5924;51.398;7.088;2023-02-21T15:58:08;83.23;;;27.60;;
11735;SDS011;5924;51.398;7.088;2023-02-21T16:08:55;77.40;;;24.47;;
11735;SDS011;5924;51.398;7.088;2023-02-21T16:14:32;64.93;;;24.10;;
11735;SDS011;5924;51.398;7.088;2023-02-21T16:19:38;85.57;;;27.93;;
11735;SDS011;5924;51.398;7.088;2023-02-21T16:27:38;82.20;;;27.17;;
11735;SDS011;5924;51.398;7.088;2023-02-21T16:30:05;77.60;;;26.43;;
11735;SDS011;5924;51.398;7.088;2023-02-21T16:32:43;83.07;;;27.97;;
11735;SDS011;5924;51.398;7.088;2023-02-21T16:35:16;68.50;;;23.73;;
11735;SDS011;5924;51.398;7.088;2023-02-21T16:37:51;71.63;;;24.63;;
11735;SDS011;5924;51.398;7.088;2023-02-21T16:40:26;74.43;;;26.10;;
11735;SDS011;5924;51.398;7.088;2023-02-21T16:42:55;71.93;;;25.90;;
11735;SDS011;5924;51.398;7.088;2023-02-21T16:45:21;73.60;;;23.27;;
11735;SDS011;5924;51.398;7.088;2023-02-21T16:47:48;85.43;;;28.50;;
11735;SDS011;5924;51.398;7.088;2023-02-21T16:50:20;77.33;;;25.17;;
11735;SDS011;5924;51.398;7.088;2023-02-21T16:52:51;70.17;;;23.87;;
11735;SDS011;5924;51.398;7.088;2023-02-21T16:55:17;66.97;;;24.30;;
11735;SDS011;5924;51.398;7.088;2023-02-21T16:57:49;60.20;;;20.73;;
11735;SDS011;5924;51.398;7.088;2023-02-21T17:00:18;70.63;;;23.13;;
11735;SDS011;5924;51.398;7.088;2023-02-21T17:02:48;65.20;;;22.33;;
11735;SDS011;5924;51.398;7.088;2023-02-21T17:05:15;59.80;;;20.30;;
11735;SDS011;5924;51.398;7.088;2023-02-21T17:07:41;54.10;;;19.03;;
11735;SDS011;5924;51.398;7.088;2023-02-21T17:10:07;52.43;;;19.03;;
11735;SDS011;5924;51.398;7.088;2023-02-21T17:12:34;43.17;;;17.17;;
11735;SDS011;5924;51.398;7.088;2023-02-21T17:14:59;37.13;;;17.03;;
11735;SDS011;5924;51.398;7.088;2023-02-21T17:17:25;38.77;;;16.20;;
11735;SDS011;5924;51.398;7.088;2023-02-21T17:19:51;31.90;;;13.80;;
11735;SDS011;5924;51.398;7.088;2023-02-21T17:22:16;31.93;;;14.50;;
11735;SDS011;5924;51.398;7.088;2023-02-21T17:24:42;26.67;;;13.30;;
11735;SDS011;5924;51.398;7.088;2023-02-21T17:27:08;32.03;;;14.13;;
11735;SDS011;5924;51.398;7.088;2023-02-21T17:29:33;25.60;;;12.80;;
11735;SDS011;5924;51.398;7.088;2023-02-21T17:31:59;34.30;;;15.30;;
11735;SDS011;5924;51.398;7.088;2023-02-21T17:34:31;34.80;;;14.73;;
11735;SDS011;5924;51.398;7.088;2023-02-21T17:36:57;27.73;;;12.97;;
11735;SDS011;5924;51.398;7.088;2023-02-21T17:39:23;39.03;;;15.77;;
11735;SDS011;5924;51.398;7.088;2023-02-21T17:41:50;77.33;;;22.23;;
11735;SDS011;5924;51.398;7.088;2023-02-21T17:44:16;56.13;;;19.93;;
11735;SDS011;5924;51.398;7.088;2023-02-21T17:46:46;39.80;;;17.67;;
11735;SDS011;5924;51.398;7.088;2023-02-21T17:49:15;41.67;;;17.40;;
11735;SDS011;5924;51.398;7.088;2023-02-21T17:51:42;60.73;;;22.00;;
11735;SDS011;5924;51.398;7.088;2023-02-21T17:54:07;41.47;;;15.47;;
11735;SDS011;5924;51.398;7.088;2023-02-21T17:56:33;54.47;;;19.70;;
11735;SDS011;5924;51.398;7.088;2023-02-21T17:58:58;44.20;;;16.93;;
11735;SDS011;5924;51.398;7.088;2023-02-21T18:01:24;84.37;;;25.40;;
11735;SDS011;5924;51.398;7.088;2023-02-21T18:03:52;47.73;;;17.77;;
11735;SDS011;5924;51.398;7.088;2023-02-21T18:06:17;47.07;;;18.40;;
11735;SDS011;5924;51.398;7.088;2023-02-21T18:08:45;38.27;;;16.70;;
11735;SDS011;5924;51.398;7.088;2023-02-21T18:11:11;64.40;;;20.90;;
11735;SDS011;5924;51.398;7.088;2023-02-21T18:13:38;91.60;;;28.20;;
11735;SDS011;5924;51.398;7.088;2023-02-21T18:16:04;83.60;;;26.17;;
11735;SDS011;5924;51.398;7.088;2023-02-21T18:18:30;57.10;;;21.37;;
11735;SDS011;5924;51.398;7.088;2023-02-21T18:20:57;47.13;;;19.90;;
11735;SDS011;5924;51.398;7.088;2023-02-21T18:23:24;50.83;;;19.83;;
11735;SDS011;5924;51.398;7.088;2023-02-21T18:25:50;89.30;;;27.40;;
11735;SDS011;5924;51.398;7.088;2023-02-21T18:28:16;52.03;;;20.63;;
11735;SDS011;5924;51.398;7.088;2023-02-21T18:30:41;47.73;;;19.40;;